Skip Navigation LinksHome page > Weather > Current weather Skip Navigation Links

Current Weather

Nellis Afb, Las Vegas, Nev.

For information only: do not use for flight planning or navigation.
Latest weather
Observation time Wednesday, October 16, 2019 9:58 PM PDT
Local time Wednesday, October 16, 2019 10:50 PM PDT
Flight conditions Visual Meteorological Conditions
Winds
Wind direction Northwest (310°)
Wind speed 2 mph
Visibility 10 mi.
Sky condition
Ceiling unlimited
Cloud layer few clouds 25,000 ft.
Temperature 73°F
Dewpoint 19°F
Altimeter 29.85 in.Hg
Derived measurements
Relative humidity 13%
Density altitude 2945 ft.
Sea-level pressure 29.77 in.Hg
Remarks
System requires maintenance.
Automated weather observing station with precipitation discriminator.
Present weather sensor not operating.
METAR KLSV 170458Z 31002KT 10SM FEW250 23/M07 A2985 RMK AO2A SLP082 PWINO $

Settings

Location code

InnerDrive.Weather 4.0.6770.0 Release CLR 4.0.30319.42000
Copyright ©2018 Inner Drive Technology. All rights reserved. Portions Copyright ©1986-2018 David Braverman.

Find weather

Site navigation


Skip Navigation Links

Place info

Page info

PayPal - The safer, easier way to pay online!

Return home.

Copyright ©2019 Inner Drive Technology. Purveyors of fine, hand-crafted computer software. Page printed 2019-10-17T05:50:29 UTC.